Time;durP1;ratioP1;P1;durP2;ratioP2;P2;SDS_P1;SDS_P2;PMS_P1;PMS_P2;Temp;Humidity;BMP_temperature;BMP_pressure;BME280_temperature;BME280_humidity;BME280_pressure;Samples;Min_cycle;Max_cycle;Signal;HPM_P1;HPM_P2
2023/08/31 00:02:15;;;;;;;2.05;0.30;;;14.60;99.90;;;;;;5113527;28;20420;-58
2023/08/31 00:04:42;;;;;;;0.70;0.40;;;14.60;99.90;;;;;;5116392;28;20416;-58
2023/08/31 00:07:09;;;;;;;0.60;0.40;;;14.60;99.90;;;;;;5136285;27;20433;-59
2023/08/31 00:09:36;;;;;;;0.60;0.30;;;14.50;99.90;;;;;;5132721;27;20747;-59
2023/08/31 00:12:04;;;;;;;0.80;0.40;;;14.50;99.90;;;;;;5136582;27;20425;-58
2023/08/31 00:14:32;;;;;;;0.60;0.30;;;14.50;99.90;;;;;;5130462;27;20853;-59
2023/08/31 00:16:59;;;;;;;0.80;0.40;;;14.50;99.90;;;;;;5136634;27;20414;-59
2023/08/31 00:19:28;;;;;;;0.80;0.40;;;14.40;99.90;;;;;;5129742;27;20428;-58
2023/08/31 00:21:55;;;;;;;0.60;0.30;;;14.30;99.90;;;;;;5115729;28;20420;-59
2023/08/31 00:24:28;;;;;;;2.00;0.40;;;14.30;99.90;;;;;;5115746;28;20427;-58
2023/08/31 00:26:55;;;;;;;0.50;0.30;;;14.30;99.90;;;;;;5114756;28;20489;-58
2023/08/31 00:29:23;;;;;;;1.05;0.40;;;14.20;99.90;;;;;;5119862;27;20426;-59
2023/08/31 00:31:51;;;;;;;1.20;0.40;;;14.20;99.90;;;;;;5136521;27;20861;-58
2023/08/31 00:34:18;;;;;;;1.20;0.40;;;14.20;99.90;;;;;;5125933;27;20435;-58
2023/08/31 00:36:47;;;;;;;1.00;0.50;;;14.30;99.90;;;;;;5115596;28;20485;-58
2023/08/31 00:39:14;;;;;;;0.60;0.40;;;14.20;99.90;;;;;;5114592;28;20873;-59
2023/08/31 00:41:41;;;;;;;0.70;0.40;;;14.10;99.90;;;;;;5115020;28;20485;-58
2023/08/31 00:44:08;;;;;;;0.70;0.40;;;14.10;99.90;;;;;;5121046;27;20860;-58
2023/08/31 00:46:36;;;;;;;0.60;0.40;;;14.20;99.90;;;;;;5136222;27;20710;-59
2023/08/31 00:49:04;;;;;;;0.60;0.40;;;14.10;99.90;;;;;;5126651;27;20467;-58
2023/08/31 00:51:32;;;;;;;0.85;0.40;;;14.00;99.90;;;;;;5115648;28;20427;-58
2023/08/31 00:54:00;;;;;;;1.08;0.40;;;14.00;99.90;;;;;;5125000;27;20437;-58
2023/08/31 00:56:27;;;;;;;0.80;0.50;;;13.90;99.90;;;;;;5136238;27;20416;-58
2023/08/31 00:58:55;;;;;;;1.23;0.40;;;13.90;99.90;;;;;;5124433;27;20709;-58
2023/08/31 01:01:31;;;;;;;3.00;0.50;;;13.90;99.90;;;;;;5116676;28;20835;-59
2023/08/31 01:04:22;;;;;;;1.00;0.40;;;14.10;99.90;;;;;;5114571;28;20428;-59
2023/08/31 01:06:57;;;;;;;0.60;0.40;;;14.00;99.90;;;;;;5120409;27;20481;-59
2023/08/31 01:09:36;;;;;;;1.20;0.40;;;14.00;99.90;;;;;;5121854;28;20743;-58
2023/08/31 01:12:07;;;;;;;1.38;0.40;;;14.10;99.90;;;;;;5125870;27;20430;-58
2023/08/31 01:14:40;;;;;;;1.10;0.50;;;14.00;99.90;;;;;;5122026;27;20846;-58
2023/08/31 01:17:09;;;;;;;0.70;0.40;;;14.00;99.90;;;;;;5124985;27;20422;-58
2023/08/31 01:19:46;;;;;;;0.90;0.40;;;14.00;99.90;;;;;;5122716;28;20456;-57
2023/08/31 01:22:19;;;;;;;0.80;0.40;;;14.00;99.90;;;;;;5125032;27;20434;-58
2023/08/31 01:24:47;;;;;;;0.70;0.40;;;13.90;99.90;;;;;;5143089;27;20414;-58
2023/08/31 01:27:15;;;;;;;0.82;0.43;;;13.80;99.90;;;;;;5137488;27;20434;-58
2023/08/31 01:29:42;;;;;;;0.70;0.40;;;13.80;99.90;;;;;;5141308;27;20422;-57
2023/08/31 01:32:09;;;;;;;0.85;0.40;;;13.70;99.90;;;;;;5134503;27;20437;-57
2023/08/31 01:34:37;;;;;;;0.65;0.40;;;13.70;99.90;;;;;;5141497;27;20452;-57
2023/08/31 01:37:10;;;;;;;0.80;0.40;;;13.60;99.90;;;;;;5135638;27;20505;-57
2023/08/31 01:39:46;;;;;;;0.60;0.40;;;13.60;99.90;;;;;;5141434;27;20484;-57
2023/08/31 01:42:17;;;;;;;0.80;0.40;;;13.60;99.90;;;;;;5134368;27;20437;-57
2023/08/31 01:44:48;;;;;;;2.10;0.40;;;13.60;99.90;;;;;;5141484;27;20848;-58
2023/08/31 01:47:19;;;;;;;0.90;0.40;;;13.60;99.90;;;;;;5135272;27;20533;-58
2023/08/31 01:49:46;;;;;;;0.75;0.50;;;13.50;99.90;;;;;;5140039;27;20516;-58
2023/08/31 01:52:13;;;;;;;0.70;0.40;;;13.50;99.90;;;;;;5135905;27;20879;-58
2023/08/31 01:54:40;;;;;;;1.20;0.50;;;13.60;99.90;;;;;;5138874;27;20437;-59
2023/08/31 01:57:07;;;;;;;0.60;0.40;;;13.70;99.90;;;;;;5139147;27;20432;-58
2023/08/31 01:59:36;;;;;;;0.70;0.30;;;13.70;99.90;;;;;;5138799;27;20415;-58
2023/08/31 02:02:03;;;;;;;0.70;0.40;;;13.80;99.90;;;;;;5121122;28;20447;-59
2023/08/31 02:04:30;;;;;;;1.10;0.40;;;13.90;99.90;;;;;;5121709;27;20481;-58
2023/08/31 02:06:58;;;;;;;0.70;0.40;;;13.90;99.90;;;;;;5121576;27;20453;-59
2023/08/31 02:09:25;;;;;;;1.20;0.40;;;14.00;99.90;;;;;;5123413;27;20424;-58
2023/08/31 02:11:52;;;;;;;1.10;0.40;;;14.00;99.90;;;;;;5120638;27;20428;-59
2023/08/31 02:14:19;;;;;;;1.00;0.40;;;14.00;99.90;;;;;;5121900;27;20518;-58
2023/08/31 02:16:48;;;;;;;1.30;0.40;;;14.00;99.90;;;;;;5138466;27;20489;-58
2023/08/31 02:19:15;;;;;;;0.75;0.40;;;14.00;99.90;;;;;;5136315;27;20862;-58
2023/08/31 02:21:42;;;;;;;0.93;0.40;;;13.90;99.90;;;;;;5119336;27;20428;-57
2023/08/31 02:24:09;;;;;;;0.70;0.40;;;13.90;99.90;;;;;;5117435;27;20847;-56
2023/08/31 02:26:38;;;;;;;0.60;0.40;;;14.00;99.90;;;;;;5118011;28;20420;-57
2023/08/31 02:29:05;;;;;;;0.70;0.40;;;14.00;99.90;;;;;;5120677;27;20433;-57
2023/08/31 02:31:32;;;;;;;0.70;0.40;;;14.00;99.90;;;;;;5118824;28;20428;-57
2023/08/31 02:34:01;;;;;;;0.90;0.40;;;14.00;99.90;;;;;;5120410;27;20435;-57
2023/08/31 02:36:28;;;;;;;1.38;0.38;;;14.00;99.90;;;;;;5139278;27;20415;-58
2023/08/31 02:38:55;;;;;;;1.50;0.40;;;14.00;99.90;;;;;;5127183;27;20468;-57
2023/08/31 02:41:22;;;;;;;0.80;0.40;;;14.00;99.90;;;;;;5116157;28;20415;-57
2023/08/31 02:43:52;;;;;;;0.90;0.40;;;13.90;99.90;;;;;;5120709;27;20423;-58
2023/08/31 02:54:33;;;;;;;0.60;0.40;;;13.90;99.90;;;;;;5133188;27;20430;-58
2023/08/31 02:57:00;;;;;;;1.00;0.40;;;13.80;99.90;;;;;;5137043;27;20422;-57
2023/08/31 02:59:27;;;;;;;0.60;0.40;;;13.80;99.90;;;;;;5137360;27;20446;-58
2023/08/31 03:01:54;;;;;;;0.70;0.40;;;13.80;99.90;;;;;;5138246;27;20423;-58
2023/08/31 03:04:21;;;;;;;0.60;0.33;;;13.70;99.90;;;;;;5138481;27;20411;-58
2023/08/31 03:06:48;;;;;;;1.20;0.40;;;13.80;99.90;;;;;;5138525;27;20406;-58
2023/08/31 03:09:15;;;;;;;1.10;0.40;;;13.80;99.90;;;;;;5137872;27;20418;-57
2023/08/31 03:11:44;;;;;;;0.65;0.40;;;13.80;99.90;;;;;;5138204;27;20566;-56
2023/08/31 03:14:11;;;;;;;0.90;0.40;;;13.80;99.90;;;;;;5137902;27;20715;-58
2023/08/31 03:16:38;;;;;;;0.70;0.40;;;13.80;99.90;;;;;;5136996;27;20424;-58
2023/08/31 03:19:06;;;;;;;1.05;0.40;;;13.70;99.90;;;;;;5136210;27;20830;-55
2023/08/31 03:21:33;;;;;;;0.60;0.40;;;13.60;99.90;;;;;;5136490;27;20704;-58
2023/08/31 03:24:01;;;;;;;1.70;0.40;;;13.50;99.90;;;;;;5135884;27;20579;-57
2023/08/31 03:26:28;;;;;;;0.60;0.38;;;13.50;99.90;;;;;;5135397;27;20841;-57
2023/08/31 03:28:57;;;;;;;1.30;0.40;;;13.60;99.90;;;;;;5136081;27;20418;-58
2023/08/31 03:31:24;;;;;;;0.60;0.40;;;13.50;99.90;;;;;;5136422;27;20411;-58
2023/08/31 03:33:52;;;;;;;1.50;0.50;;;13.50;99.90;;;;;;5136112;27;20418;-58
2023/08/31 03:36:19;;;;;;;0.73;0.45;;;13.50;99.90;;;;;;5135987;27;20439;-57
2023/08/31 03:38:46;;;;;;;0.77;0.40;;;13.50;99.90;;;;;;5136103;27;20414;-56
2023/08/31 03:41:13;;;;;;;0.90;0.50;;;13.50;99.90;;;;;;5136447;27;20423;-58
2023/08/31 03:43:40;;;;;;;0.70;0.50;;;13.50;99.90;;;;;;5136652;27;20750;-57
2023/08/31 03:46:08;;;;;;;0.70;0.40;;;13.50;99.90;;;;;;5136558;27;20703;-56
2023/08/31 03:48:35;;;;;;;1.90;0.50;;;13.60;99.90;;;;;;5137599;27;20451;-56
2023/08/31 03:51:03;;;;;;;0.70;0.40;;;13.50;99.90;;;;;;5137733;27;20422;-58
2023/08/31 03:53:30;;;;;;;0.60;0.30;;;13.50;99.90;;;;;;5137219;27;20423;-57
2023/08/31 03:55:57;;;;;;;0.57;0.40;;;13.50;99.90;;;;;;5137087;27;20712;-57
2023/08/31 03:58:24;;;;;;;0.68;0.40;;;13.50;99.90;;;;;;5136941;27;20407;-57
2023/08/31 04:00:52;;;;;;;1.50;0.40;;;13.50;99.90;;;;;;5137174;27;20407;-57
2023/08/31 04:03:21;;;;;;;0.80;0.40;;;13.50;99.90;;;;;;5137219;27;20426;-57
2023/08/31 04:05:48;;;;;;;0.70;0.40;;;13.40;99.90;;;;;;5136772;27;20418;-56
2023/08/31 04:08:15;;;;;;;0.90;0.50;;;13.50;99.90;;;;;;5136193;27;20425;-56
2023/08/31 04:10:42;;;;;;;0.80;0.47;;;13.50;99.90;;;;;;5136231;27;20425;-56
2023/08/31 04:13:09;;;;;;;1.20;0.40;;;13.40;99.90;;;;;;5135976;27;20410;-57
2023/08/31 04:15:36;;;;;;;0.90;0.40;;;13.40;99.90;;;;;;5135935;27;20440;-57
2023/08/31 04:18:03;;;;;;;0.90;0.50;;;13.50;99.90;;;;;;5134963;27;20426;-56
2023/08/31 04:20:33;;;;;;;0.90;0.50;;;13.50;99.90;;;;;;5135056;27;20499;-56
2023/08/31 04:23:03;;;;;;;0.90;0.40;;;13.50;99.90;;;;;;5135544;27;20853;-56
2023/08/31 04:25:31;;;;;;;1.00;0.40;;;13.40;99.90;;;;;;5136105;27;20430;-56
2023/08/31 04:27:58;;;;;;;1.27;0.50;;;13.40;99.90;;;;;;5134953;27;20406;-55
2023/08/31 04:30:26;;;;;;;1.08;0.50;;;13.40;99.90;;;;;;5134765;27;20437;-56
2023/08/31 04:32:53;;;;;;;0.70;0.50;;;13.40;99.90;;;;;;5135398;27;20845;-56
2023/08/31 04:35:20;;;;;;;1.50;0.50;;;13.40;99.90;;;;;;5135370;27;20833;-56
2023/08/31 04:37:49;;;;;;;1.02;0.40;;;13.30;99.90;;;;;;5133269;27;20509;-57
2023/08/31 04:40:16;;;;;;;0.80;0.50;;;13.30;99.90;;;;;;5132835;27;20710;-56
2023/08/31 04:42:43;;;;;;;0.70;0.40;;;13.30;99.90;;;;;;5133049;27;20717;-56
2023/08/31 04:45:12;;;;;;;1.80;0.40;;;13.30;99.90;;;;;;5135842;27;20414;-51
2023/08/31 04:47:39;;;;;;;1.30;0.40;;;13.40;99.90;;;;;;5136156;27;20417;-55
2023/08/31 04:50:07;;;;;;;0.70;0.40;;;13.40;99.90;;;;;;5133302;27;20422;-57
2023/08/31 04:52:34;;;;;;;0.80;0.40;;;13.50;99.90;;;;;;5133121;27;20609;-57
2023/08/31 04:55:04;;;;;;;1.47;0.40;;;13.50;99.90;;;;;;5133009;27;20436;-57
2023/08/31 04:57:31;;;;;;;0.73;0.50;;;13.50;99.90;;;;;;5133850;27;20426;-58
2023/08/31 04:59:58;;;;;;;0.80;0.50;;;13.50;99.90;;;;;;5134296;27;20419;-55
2023/08/31 05:02:25;;;;;;;0.60;0.40;;;13.40;99.90;;;;;;5134109;27;20418;-55
2023/08/31 05:04:52;;;;;;;0.80;0.50;;;13.40;99.90;;;;;;5133723;28;20826;-56
2023/08/31 05:07:20;;;;;;;1.80;0.40;;;13.40;99.90;;;;;;5134686;28;20433;-60
2023/08/31 05:09:47;;;;;;;0.75;0.50;;;13.30;99.90;;;;;;5120803;28;20418;-57
2023/08/31 05:12:17;;;;;;;1.10;0.55;;;13.20;99.90;;;;;;5136057;28;20426;-56
2023/08/31 05:14:44;;;;;;;0.70;0.50;;;13.20;99.90;;;;;;5134494;28;20567;-57
2023/08/31 05:17:11;;;;;;;0.70;0.40;;;13.20;99.90;;;;;;5133420;28;20414;-56
2023/08/31 05:19:38;;;;;;;2.10;0.60;;;13.10;99.90;;;;;;5133353;28;20426;-57
2023/08/31 05:22:06;;;;;;;1.00;0.50;;;13.10;99.90;;;;;;5132609;28;20406;-57
2023/08/31 05:24:33;;;;;;;1.20;0.50;;;13.20;99.90;;;;;;5133281;28;20415;-57
2023/08/31 05:27:01;;;;;;;0.80;0.50;;;13.20;99.90;;;;;;5133970;28;20420;-57
2023/08/31 05:29:31;;;;;;;0.90;0.60;;;13.30;99.90;;;;;;5133794;28;20936;-57
2023/08/31 05:31:58;;;;;;;1.40;0.57;;;13.30;99.90;;;;;;5133823;28;20414;-57
2023/08/31 05:34:26;;;;;;;1.02;0.50;;;13.30;99.90;;;;;;5135863;28;20410;-56
2023/08/31 05:36:56;;;;;;;0.93;0.50;;;13.30;99.90;;;;;;5133928;28;20426;-56
2023/08/31 05:39:23;;;;;;;1.40;0.60;;;13.30;99.90;;;;;;5130882;28;20446;-57
2023/08/31 05:41:50;;;;;;;1.10;0.50;;;13.30;99.90;;;;;;5133228;28;20418;-56
2023/08/31 05:44:17;;;;;;;1.10;0.50;;;13.40;99.90;;;;;;5134005;28;20420;-57
2023/08/31 05:46:46;;;;;;;1.50;0.50;;;13.40;99.90;;;;;;5133386;28;20706;-55
2023/08/31 05:49:13;;;;;;;1.70;0.50;;;13.30;99.90;;;;;;5131754;28;20992;-57
2023/08/31 05:51:40;;;;;;;0.95;0.50;;;13.30;99.90;;;;;;5133652;27;20725;-56
2023/08/31 05:54:11;;;;;;;1.25;0.55;;;13.40;99.90;;;;;;5136624;27;20422;-57
2023/08/31 05:56:39;;;;;;;1.60;0.60;;;13.40;99.90;;;;;;5135421;27;20529;-57
2023/08/31 05:59:06;;;;;;;0.90;0.50;;;13.40;99.90;;;;;;5121328;27;20434;-55
2023/08/31 06:01:33;;;;;;;0.90;0.60;;;13.40;99.90;;;;;;5146923;27;20429;-55
2023/08/31 06:04:03;;;;;;;2.30;0.50;;;13.40;99.90;;;;;;5136793;27;20414;-55
2023/08/31 06:06:30;;;;;;;2.60;0.50;;;13.50;99.90;;;;;;5132965;27;20423;-56
2023/08/31 06:08:57;;;;;;;0.90;0.57;;;13.60;99.90;;;;;;5116707;27;20432;-54
2023/08/31 06:11:25;;;;;;;0.80;0.50;;;13.60;99.90;;;;;;5113496;27;20439;-52
2023/08/31 06:13:52;;;;;;;0.80;0.40;;;13.60;99.90;;;;;;5114258;27;20462;-55
2023/08/31 06:16:19;;;;;;;0.90;0.40;;;13.60;99.90;;;;;;5115146;27;20904;-55
2023/08/31 06:18:46;;;;;;;1.80;0.70;;;13.60;99.90;;;;;;5132096;27;20411;-51
2023/08/31 06:21:14;;;;;;;1.40;0.50;;;13.70;99.90;;;;;;5131036;27;20607;-50
2023/08/31 06:23:41;;;;;;;1.92;0.50;;;13.70;99.90;;;;;;5126092;27;20446;-48
2023/08/31 06:26:08;;;;;;;1.50;0.50;;;13.70;99.90;;;;;;5120899;27;20852;-52
2023/08/31 06:28:35;;;;;;;0.90;0.50;;;13.70;99.90;;;;;;5136436;27;20422;-50
2023/08/31 06:31:04;;;;;;;0.90;0.60;;;13.70;99.90;;;;;;5134710;27;20422;-51
2023/08/31 06:33:31;;;;;;;0.90;0.50;;;13.70;99.90;;;;;;5132836;27;20426;-49
2023/08/31 06:35:58;;;;;;;1.60;0.50;;;13.80;99.90;;;;;;5134617;27;20445;-53
2023/08/31 06:38:26;;;;;;;0.80;0.40;;;14.00;99.90;;;;;;5127102;27;20425;-54
2023/08/31 06:40:58;;;;;;;0.88;0.50;;;14.10;99.90;;;;;;5128101;27;20424;-52
2023/08/31 06:43:26;;;;;;;0.98;0.50;;;14.20;99.90;;;;;;5115617;28;20540;-52
2023/08/31 06:45:53;;;;;;;0.80;0.50;;;14.30;99.90;;;;;;5115256;27;20408;-51
2023/08/31 06:48:20;;;;;;;2.20;0.50;;;14.50;99.90;;;;;;5133879;27;20427;-51
2023/08/31 06:50:48;;;;;;;0.70;0.50;;;14.50;99.90;;;;;;5118105;27;20905;-52
2023/08/31 06:53:15;;;;;;;1.00;0.40;;;14.70;99.90;;;;;;5103119;28;20981;-51
2023/08/31 06:55:44;;;;;;;0.90;0.50;;;14.80;99.90;;;;;;5090956;28;20426;-52
2023/08/31 06:58:11;;;;;;;1.30;0.50;;;15.10;99.90;;;;;;5090037;28;20444;-51
2023/08/31 07:00:38;;;;;;;2.20;0.50;;;15.20;99.90;;;;;;5091855;28;20437;-49
2023/08/31 07:03:06;;;;;;;1.00;0.50;;;15.40;99.90;;;;;;5107741;28;20428;-48
2023/08/31 07:05:36;;;;;;;1.30;0.50;;;15.50;99.90;;;;;;5107247;28;20768;-53
2023/08/31 07:08:03;;;;;;;0.90;0.40;;;15.60;99.90;;;;;;5088994;28;20903;-49
2023/08/31 07:10:30;;;;;;;1.50;0.40;;;15.70;11.90;;;;;;5089739;28;20419;-51
2023/08/31 07:12:59;;;;;;;1.77;0.47;;;15.80;99.90;;;;;;5108341;28;20421;-53
2023/08/31 07:15:26;;;;;;;0.80;0.40;;;16.00;5.40;;;;;;5091728;28;20429;-54
2023/08/31 07:17:53;;;;;;;0.70;0.40;;;16.00;1.00;;;;;;5092470;28;20430;-52
2023/08/31 07:20:20;;;;;;;0.77;0.40;;;16.10;1.00;;;;;;5116727;27;20845;-52
2023/08/31 07:22:47;;;;;;;0.73;0.40;;;16.20;1.00;;;;;;5095858;27;20748;-54
2023/08/31 07:25:14;;;;;;;0.70;0.40;;;16.20;1.00;;;;;;5100808;28;20844;-53
2023/08/31 07:27:42;;;;;;;0.70;0.60;;;16.10;1.00;;;;;;5091979;28;20491;-52
2023/08/31 07:30:11;;;;;;;1.40;0.40;;;16.00;1.00;;;;;;5091173;28;20421;-55
2023/08/31 07:32:38;;;;;;;0.85;0.50;;;15.80;1.00;;;;;;5105972;28;20446;-50
2023/08/31 07:35:06;;;;;;;1.20;0.60;;;15.70;1.00;;;;;;5095281;28;20441;-51
2023/08/31 07:37:34;;;;;;;0.70;0.40;;;15.70;1.00;;;;;;5107714;28;20454;-53
2023/08/31 07:40:01;;;;;;;1.05;0.50;;;15.90;1.00;;;;;;5100222;28;20426;-53
2023/08/31 07:42:29;;;;;;;0.80;0.40;;;15.90;1.00;;;;;;5093409;28;20420;-53
2023/08/31 07:44:56;;;;;;;1.10;0.50;;;16.00;1.00;;;;;;5095648;28;20426;-54
2023/08/31 07:47:24;;;;;;;0.90;0.50;;;15.90;1.00;;;;;;5114741;28;20423;-50
2023/08/31 07:49:51;;;;;;;0.80;0.40;;;16.00;1.00;;;;;;5110283;28;20738;-55
2023/08/31 07:52:19;;;;;;;1.60;0.50;;;16.30;1.00;;;;;;5093987;28;20733;-53
2023/08/31 07:54:46;;;;;;;1.10;0.50;;;16.50;1.00;;;;;;5117408;27;20414;-51
2023/08/31 07:57:13;;;;;;;0.60;0.40;;;16.60;1.00;;;;;;5131384;27;20853;-55
2023/08/31 07:59:40;;;;;;;0.80;0.40;;;16.70;1.00;;;;;;5130251;27;20448;-56
2023/08/31 08:02:07;;;;;;;1.90;0.38;;;16.90;99.90;;;;;;5134224;27;20856;-55
2023/08/31 08:04:36;;;;;;;0.73;0.40;;;16.90;99.90;;;;;;5118872;27;20437;-55
2023/08/31 08:07:03;;;;;;;1.40;0.40;;;17.00;99.90;;;;;;5113750;28;20708;-53
2023/08/31 08:09:31;;;;;;;0.90;0.40;;;17.00;99.90;;;;;;5125825;27;20711;-55
2023/08/31 08:11:58;;;;;;;0.73;0.40;;;16.90;99.90;;;;;;5133548;27;20586;-55
2023/08/31 08:14:25;;;;;;;1.00;0.30;;;16.90;99.90;;;;;;5133047;27;20419;-53
2023/08/31 08:16:52;;;;;;;0.88;0.40;;;17.00;99.90;;;;;;5131516;27;20453;-52
2023/08/31 08:19:23;;;;;;;1.60;0.40;;;17.30;99.90;;;;;;5123830;27;20420;-52
2023/08/31 08:21:52;;;;;;;0.50;0.30;;;17.40;99.90;;;;;;5114067;27;20424;-52
2023/08/31 08:24:19;;;;;;;0.75;0.50;;;17.70;99.90;;;;;;5112604;27;20427;-50
2023/08/31 08:26:46;;;;;;;1.60;0.30;;;17.90;99.90;;;;;;5113494;28;20689;-54
2023/08/31 08:29:14;;;;;;;1.75;0.40;;;17.90;99.90;;;;;;5116093;27;20854;-54
2023/08/31 08:31:41;;;;;;;0.60;0.40;;;17.80;99.90;;;;;;5133704;27;20421;-55
2023/08/31 08:34:08;;;;;;;2.10;0.30;;;17.80;99.90;;;;;;5130955;27;20835;-53
2023/08/31 08:36:35;;;;;;;0.90;0.30;;;18.00;99.90;;;;;;5114675;27;20436;-54
2023/08/31 08:39:04;;;;;;;1.27;0.40;;;18.00;99.90;;;;;;5111352;28;20412;-54
2023/08/31 08:41:32;;;;;;;0.68;0.30;;;17.90;99.90;;;;;;5127192;27;20860;-50
2023/08/31 08:44:04;;;;;;;0.85;0.40;;;17.90;99.90;;;;;;5131601;27;20422;-52
2023/08/31 08:46:33;;;;;;;1.00;0.40;;;18.10;99.90;;;;;;5112193;28;20415;-54
2023/08/31 08:49:02;;;;;;;1.07;0.30;;;18.20;99.90;;;;;;5113097;27;20458;-52
2023/08/31 08:51:31;;;;;;;1.00;0.30;;;18.30;99.90;;;;;;5113982;28;20428;-53
2023/08/31 08:54:01;;;;;;;0.85;0.40;;;18.50;99.90;;;;;;5105369;28;20439;-55
2023/08/31 08:56:29;;;;;;;1.20;0.40;;;18.30;99.90;;;;;;5097327;28;20491;-55
2023/08/31 08:58:56;;;;;;;0.53;0.30;;;17.90;99.90;;;;;;5092245;28;20430;-55
2023/08/31 09:01:25;;;;;;;1.90;0.40;;;17.70;99.90;;;;;;5090962;28;20443;-55
2023/08/31 09:03:53;;;;;;;0.68;0.40;;;17.80;99.90;;;;;;5089974;27;20853;-55
2023/08/31 09:06:21;;;;;;;0.93;0.38;;;17.90;99.90;;;;;;5094082;28;20721;-54
2023/08/31 09:08:56;;;;;;;1.52;0.40;;;17.80;99.90;;;;;;5092154;28;20494;-54
2023/08/31 09:11:24;;;;;;;1.13;0.40;;;17.90;99.90;;;;;;5110994;28;20420;-55
2023/08/31 09:13:53;;;;;;;1.00;0.40;;;18.10;1.00;;;;;;5107413;28;20436;-54
2023/08/31 09:16:28;;;;;;;1.10;0.40;;;18.10;99.90;;;;;;5104055;28;20430;-53
2023/08/31 09:18:55;;;;;;;0.70;0.40;;;18.40;99.90;;;;;;5106370;28;20431;-54
2023/08/31 09:21:24;;;;;;;1.15;0.40;;;18.40;99.90;;;;;;5112969;28;20498;-55
2023/08/31 09:23:58;;;;;;;1.17;0.40;;;18.20;99.90;;;;;;5102932;28;20434;-50
2023/08/31 09:26:25;;;;;;;0.50;0.30;;;18.20;99.90;;;;;;5091999;28;20422;-54
2023/08/31 09:28:53;;;;;;;3.25;0.40;;;18.10;99.90;;;;;;5098665;28;20430;-53
2023/08/31 09:31:21;;;;;;;0.80;0.40;;;18.30;99.90;;;;;;5105082;28;21060;-54
2023/08/31 09:33:52;;;;;;;1.20;0.40;;;18.40;99.90;;;;;;5109726;28;20419;-50
2023/08/31 09:36:19;;;;;;;1.00;0.47;;;18.40;99.90;;;;;;5111399;28;20436;-53
2023/08/31 09:38:47;;;;;;;0.70;0.40;;;18.50;99.90;;;;;;5107511;28;20453;-55
2023/08/31 09:41:15;;;;;;;0.90;0.40;;;18.40;99.90;;;;;;5106864;28;20432;-53
2023/08/31 09:43:42;;;;;;;0.50;0.30;;;18.40;99.90;;;;;;5091090;28;20737;-55
2023/08/31 09:46:11;;;;;;;0.60;0.30;;;18.50;99.90;;;;;;5102285;28;20858;-54
2023/08/31 09:48:40;;;;;;;2.05;0.30;;;18.90;99.90;;;;;;5103854;28;20434;-55
2023/08/31 09:51:10;;;;;;;1.40;0.40;;;19.20;99.90;;;;;;5107956;27;20437;-52
2023/08/31 09:53:38;;;;;;;1.00;0.30;;;19.60;99.90;;;;;;5106385;27;20504;-54
2023/08/31 09:56:07;;;;;;;0.90;0.40;;;19.70;99.90;;;;;;5122120;27;21011;-53
2023/08/31 09:58:34;;;;;;;0.88;0.40;;;20.00;99.90;;;;;;5135125;27;20406;-55
2023/08/31 10:01:02;;;;;;;0.80;0.40;;;20.00;99.90;;;;;;5126125;27;20433;-55
2023/08/31 10:03:31;;;;;;;0.68;0.30;;;19.90;99.90;;;;;;5127516;27;20438;-55
2023/08/31 10:06:00;;;;;;;2.03;0.38;;;19.80;99.90;;;;;;5125840;27;20871;-50
2023/08/31 10:08:31;;;;;;;0.50;0.30;;;19.60;99.90;;;;;;5120849;27;20436;-55
2023/08/31 10:11:02;;;;;;;0.68;0.30;;;19.60;99.90;;;;;;5121708;27;20433;-55
2023/08/31 10:13:32;;;;;;;1.10;0.30;;;19.40;99.90;;;;;;5133142;27;20513;-55
2023/08/31 10:15:59;;;;;;;0.65;0.35;;;19.50;99.90;;;;;;5129543;27;20424;-55
2023/08/31 10:18:27;;;;;;;1.30;0.30;;;19.40;99.90;;;;;;5114574;28;20854;-53
2023/08/31 10:20:56;;;;;;;1.10;0.40;;;20.00;99.90;;;;;;5118682;27;20426;-54
2023/08/31 10:23:23;;;;;;;1.15;0.30;;;20.20;99.90;;;;;;5133547;27;20431;-52
2023/08/31 10:26:04;;;;;;;0.70;0.40;;;20.30;99.90;;;;;;5127207;27;20509;-55
2023/08/31 10:28:41;;;;;;;1.20;0.40;;;20.20;99.90;;;;;;5124903;27;20817;-51
2023/08/31 10:31:09;;;;;;;0.90;0.40;;;19.80;99.90;;;;;;5125462;27;20427;-51
2023/08/31 10:33:40;;;;;;;0.70;0.40;;;19.60;99.90;;;;;;5136519;27;20429;-51
2023/08/31 10:36:14;;;;;;;0.90;0.40;;;19.60;99.90;;;;;;5119255;27;20711;-56
2023/08/31 10:38:42;;;;;;;0.70;0.40;;;19.70;99.90;;;;;;5113102;28;20439;-53
2023/08/31 10:41:23;;;;;;;0.60;0.40;;;19.80;99.90;;;;;;5113596;27;20428;-53
2023/08/31 10:43:52;;;;;;;0.80;0.40;;;20.00;99.90;;;;;;5112798;28;20505;-54
2023/08/31 10:46:25;;;;;;;1.35;0.40;;;20.20;99.90;;;;;;5112316;27;20572;-55
2023/08/31 10:48:53;;;;;;;0.70;0.30;;;20.80;99.90;;;;;;5114049;28;20833;-55
2023/08/31 10:51:28;;;;;;;1.30;0.43;;;21.10;99.90;;;;;;5130537;27;20495;-54
2023/08/31 10:54:13;;;;;;;0.60;0.30;;;21.30;99.90;;;;;;5137574;27;20439;-55
2023/08/31 10:56:54;;;;;;;1.00;0.40;;;21.10;99.90;;;;;;5132490;27;20434;-55
2023/08/31 10:59:21;;;;;;;0.93;0.40;;;21.10;99.90;;;;;;5129919;27;20484;-54
2023/08/31 11:01:56;;;;;;;1.10;0.40;;;21.00;97.20;;;;;;5132488;27;20426;-51
2023/08/31 11:04:25;;;;;;;0.90;0.40;;;20.50;98.90;;;;;;5124331;27;20698;-54
2023/08/31 11:07:15;;;;;;;1.50;0.30;;;20.30;98.80;;;;;;5126877;27;20507;-53
2023/08/31 11:09:43;;;;;;;0.98;0.40;;;19.70;99.90;;;;;;5119521;27;20453;-55
2023/08/31 11:12:11;;;;;;;1.60;0.40;;;19.30;99.90;;;;;;5135848;27;20441;-52
2023/08/31 11:14:38;;;;;;;0.85;0.40;;;19.60;99.90;;;;;;5115470;27;20449;-52
2023/08/31 11:17:05;;;;;;;0.70;0.40;;;19.30;99.90;;;;;;5132925;27;20764;-55
2023/08/31 11:19:33;;;;;;;0.80;0.40;;;19.50;99.90;;;;;;5115875;27;20435;-55
2023/08/31 11:22:02;;;;;;;1.40;0.40;;;19.60;99.90;;;;;;5122082;27;20430;-54
2023/08/31 11:24:31;;;;;;;1.20;0.40;;;19.90;99.90;;;;;;5127806;27;20491;-49
2023/08/31 11:26:59;;;;;;;1.90;0.50;;;20.20;99.90;;;;;;5135769;27;20444;-50
2023/08/31 11:29:27;;;;;;;1.00;0.40;;;20.90;99.90;;;;;;5129391;27;20725;-53
2023/08/31 11:31:57;;;;;;;2.85;0.70;;;21.50;99.90;;;;;;5133337;27;20737;-54
2023/08/31 11:34:24;;;;;;;0.70;0.40;;;21.30;99.90;;;;;;5128080;27;20410;-53
2023/08/31 11:36:51;;;;;;;1.07;0.40;;;21.40;99.90;;;;;;5132138;27;20410;-53
2023/08/31 11:39:20;;;;;;;1.10;0.40;;;21.30;99.90;;;;;;5116125;27;20592;-54
2023/08/31 11:41:49;;;;;;;0.60;0.40;;;21.00;99.90;;;;;;5109519;28;20420;-54
2023/08/31 11:44:17;;;;;;;0.60;0.30;;;20.70;99.90;;;;;;5123364;27;20422;-55
2023/08/31 11:46:49;;;;;;;0.90;0.32;;;20.70;99.90;;;;;;5132021;27;20604;-52
2023/08/31 11:49:18;;;;;;;0.98;0.40;;;20.90;99.90;;;;;;5116725;27;20428;-54
2023/08/31 11:51:46;;;;;;;1.00;0.43;;;20.40;99.90;;;;;;5113407;28;20413;-53
2023/08/31 11:54:13;;;;;;;1.00;0.40;;;20.50;99.90;;;;;;5111518;28;20432;-53
2023/08/31 11:56:42;;;;;;;0.70;0.40;;;20.40;99.90;;;;;;5111889;27;20502;-51
2023/08/31 11:59:12;;;;;;;1.17;0.40;;;20.50;99.90;;;;;;5111600;28;20460;-54
2023/08/31 12:01:41;;;;;;;0.70;0.40;;;20.70;99.90;;;;;;5113206;27;20426;-55
2023/08/31 12:04:12;;;;;;;1.20;0.30;;;20.90;99.90;;;;;;5111108;28;20500;-52
2023/08/31 12:06:40;;;;;;;1.20;0.40;;;20.90;99.90;;;;;;5112354;27;20423;-55
2023/08/31 12:09:08;;;;;;;0.68;0.40;;;20.90;99.90;;;;;;5110478;28;20506;-54
2023/08/31 12:11:35;;;;;;;1.20;0.50;;;21.10;99.90;;;;;;5112332;27;20430;-50
2023/08/31 12:14:04;;;;;;;0.90;0.40;;;20.90;99.90;;;;;;5120744;27;20432;-53
2023/08/31 12:16:36;;;;;;;0.98;0.30;;;20.70;99.90;;;;;;5125916;27;20427;-55
2023/08/31 12:19:06;;;;;;;0.70;0.40;;;20.50;99.90;;;;;;5134128;27;20523;-54
2023/08/31 12:21:33;;;;;;;0.85;0.40;;;20.20;99.90;;;;;;5127917;27;20830;-51
2023/08/31 12:24:00;;;;;;;0.73;0.40;;;20.30;99.90;;;;;;5134370;27;20440;-59
2023/08/31 12:26:28;;;;;;;0.90;0.30;;;20.50;99.90;;;;;;5128300;27;20436;-55
2023/08/31 12:28:55;;;;;;;0.90;0.40;;;20.50;99.90;;;;;;5099546;28;20504;-55
2023/08/31 12:31:24;;;;;;;0.70;0.40;;;20.20;99.90;;;;;;5109265;27;20416;-55
2023/08/31 12:33:52;;;;;;;0.70;0.40;;;20.30;99.90;;;;;;5111230;28;20431;-54
2023/08/31 12:36:19;;;;;;;1.00;0.45;;;20.00;99.90;;;;;;5116812;27;20442;-51
2023/08/31 12:38:47;;;;;;;2.60;0.47;;;20.00;99.90;;;;;;5113746;28;20908;-55
2023/08/31 12:41:14;;;;;;;0.70;0.40;;;20.50;99.90;;;;;;5118302;27;20513;-56
2023/08/31 12:43:41;;;;;;;1.00;0.38;;;20.70;99.90;;;;;;5132694;27;20419;-53
2023/08/31 12:46:09;;;;;;;2.50;0.30;;;21.00;99.90;;;;;;5118074;27;20416;-54
2023/08/31 12:48:36;;;;;;;0.80;0.40;;;21.00;99.10;;;;;;5111444;28;20474;-56
2023/08/31 12:51:05;;;;;;;1.55;0.50;;;20.80;99.90;;;;;;5111319;27;20783;-54
2023/08/31 12:53:32;;;;;;;0.68;0.40;;;20.70;99.90;;;;;;5111210;27;20435;-53
2023/08/31 12:55:59;;;;;;;0.77;0.30;;;20.70;99.90;;;;;;5113862;27;20451;-56
2023/08/31 12:58:26;;;;;;;0.60;0.30;;;20.60;99.50;;;;;;5130533;27;20433;-54
2023/08/31 13:00:54;;;;;;;0.90;0.40;;;20.60;99.90;;;;;;5124881;27;20431;-57
2023/08/31 13:03:21;;;;;;;1.00;0.40;;;20.70;99.90;;;;;;5123080;27;20436;-58